Terrace Airport
CYXT : now visible

Airfield :











YOU CAN JOIN US ON...

 
LOGIN :

Register | Disclaimer

   EN    FR    IT 

 









Legend :    VFR   Marginal VFR   IFR   Intensive IFR   Very Intensive IFR
Visi :
Ceiling :
>= 8 km
>= 3000ft
5 to 8 km
1000 to 3000 ft
1500m to 5 km
500 to 1000 ft
800 to 1500m
200 to 500 ft
< 800m
< 200 ft
Symbols :   Thunderstorms  Fog  Heavy snow  Heavy precipitations  Wind > 20 kt






- Airport Elevation : 713 ft
- IATA code : YXT


CYXT - Terrace

CURRENT METAR :
  • 041400Z 17017KT 6SM -RA BR FEW005 SCT020 OVC075 07/06 A3008 RMK SF2SC2AC4 SLP197

EXPIRED METARs :
  • 041300Z 16016G21KT 6SM -RA BR FEW002 SCT006 SCT017 BKN030 OVC074 07/06 A3010 RMK SF1SF2SC1SC1AC3 SLP202
  • 041256Z 16016G21KT 6SM -RA BR FEW002 SCT006 BKN030 OVC080 07/06 A3009 RMK SF1SF2SC2AC3 WSHFT 1240 SLP200
  • 041200Z 25006KT 170V290 8SM -RA FEW002 SCT006 BKN060 OVC090 06/06 A3011 RMK SF1SF3SC3AC1 SLP205

TAF TAF CYXT
Valid from the 04 at 13:00 until the 05 at 01:00 UTC


041238Z 0413/0501 25006KT 3SM -RA BR BKN006
TEMPO 0413/0417 P6SM -RA SCT006 BKN080
BECMG 0413/0415 18014G24KT
FM041700 18014G24KT P6SM -RA FEW006 SCT012 BKN040
TEMPO 0417/0423 5SM -RA BR SCT006 OVC012
FM042300 18018G28KT P6SM -RA SCT005 OVC012 RMK NXT FCST BY 041900Z
CZVR FIR / North America



MET'MAP, your aeronautical weather chart ! - Copyright ORBIFLY December 2007 - Disclaimer

ORBIFLY MET'MAP TEAM :

Programming & Development : Alexandra Zaïnal
Concept & original design : Baudouin d'Aumeries
Assistance for programming : Marc-Olivier Méhu
Technical & hardware support : Manuel Goepfert

Contact : metmap@orbifly.com




SOURCES & CREDITS :

   NOAA       Earth
Advisory